createdAt,value
2019-02-27T00:01:24.923Z,20.40
2019-02-27T00:03:53.302Z,17.97
2019-02-27T00:06:41.031Z,19.37
2019-02-27T00:09:49.334Z,19.07
2019-02-27T00:12:36.962Z,20.00
2019-02-27T00:15:45.256Z,19.77
2019-02-27T00:18:13.642Z,20.03
2019-02-27T00:20:42.025Z,19.20
2019-02-27T00:23:10.403Z,19.93
2019-02-27T00:25:38.793Z,18.50
2019-02-27T00:28:26.421Z,19.60
2019-02-27T00:30:54.814Z,20.30
2019-02-27T00:33:42.310Z,21.23
2019-02-27T00:39:24.267Z,19.83
2019-02-27T00:44:26.980Z,20.17
2019-02-27T00:46:55.369Z,18.53
2019-02-27T00:49:23.747Z,19.50
2019-02-27T00:51:52.150Z,19.57
2019-02-27T00:54:20.799Z,18.57
2019-02-27T00:56:49.230Z,18.93
2019-02-27T00:59:17.625Z,18.20
2019-02-27T01:01:47.429Z,18.77
2019-02-27T01:04:16.151Z,18.30
2019-02-27T01:06:45.061Z,18.50
2019-02-27T01:09:14.928Z,20.80
2019-02-27T01:11:43.315Z,18.57
2019-02-27T01:14:11.691Z,20.90
2019-02-27T01:16:40.083Z,20.30
2019-02-27T01:19:08.460Z,19.13
2019-02-27T01:21:36.856Z,20.23
2019-02-27T01:24:05.233Z,19.60
2019-02-27T01:26:33.621Z,18.80
2019-02-27T01:29:02.018Z,19.73
2019-02-27T01:31:30.404Z,19.67
2019-02-27T01:33:58.780Z,18.20
2019-02-27T01:36:27.171Z,17.83
2019-02-27T01:38:55.550Z,19.27
2019-02-27T01:41:24.574Z,20.20
2019-02-27T01:43:53.820Z,19.23
2019-02-27T01:46:22.210Z,19.47
2019-02-27T01:48:50.596Z,20.80
2019-02-27T01:51:18.972Z,20.20
2019-02-27T01:53:47.449Z,20.83
2019-02-27T01:56:15.840Z,21.00
2019-02-27T01:58:44.468Z,21.80
2019-02-27T02:01:12.853Z,22.90
2019-02-27T02:03:41.401Z,21.17
2019-02-27T02:06:09.798Z,22.57
2019-02-27T02:08:38.421Z,21.80
2019-02-27T02:11:06.803Z,21.83
2019-02-27T02:13:57.538Z,21.33
2019-02-27T02:16:34.174Z,22.07
2019-02-27T02:19:33.837Z,21.93
2019-02-27T02:22:08.892Z,21.43
2019-02-27T02:24:58.735Z,21.10
2019-02-27T02:27:35.942Z,22.17
2019-02-27T02:30:41.055Z,21.85
2019-02-27T02:33:35.095Z,22.67
2019-02-27T02:36:15.358Z,22.30
2019-02-27T02:39:01.701Z,21.40
2019-02-27T02:41:48.016Z,22.70
2019-02-27T02:44:43.714Z,22.47
2019-02-27T02:47:24.252Z,22.67
2019-02-27T02:50:17.658Z,21.77
2019-02-27T02:52:59.981Z,23.10
2019-02-27T02:55:36.940Z,23.80
2019-02-27T02:58:11.356Z,21.83
2019-02-27T03:00:49.947Z,22.13
2019-02-27T03:03:27.158Z,21.30
2019-02-27T03:06:04.620Z,21.77
2019-02-27T03:08:38.660Z,22.30
2019-02-27T03:11:43.563Z,22.27
2019-02-27T03:14:23.494Z,18.53
2019-02-27T03:17:21.482Z,20.73
2019-02-27T03:19:55.610Z,21.90
2019-02-27T03:22:43.573Z,21.60
2019-02-27T03:25:24.006Z,21.27
2019-02-27T03:27:55.450Z,20.40
2019-02-27T03:30:36.842Z,21.70
2019-02-27T03:33:24.478Z,20.47
2019-02-27T03:36:08.644Z,22.63
2019-02-27T03:38:59.127Z,20.57
2019-02-27T03:41:31.426Z,20.57
2019-02-27T03:44:20.222Z,21.03
2019-02-27T03:46:50.201Z,21.40
2019-02-27T03:49:40.687Z,21.37
2019-02-27T03:52:27.605Z,23.30
2019-02-27T03:55:07.949Z,22.60
2019-02-27T03:58:02.010Z,21.93
2019-02-27T04:00:43.733Z,20.83
2019-02-27T04:03:27.151Z,21.53
2019-02-27T04:06:10.196Z,21.10
2019-02-27T04:08:58.594Z,20.50
2019-02-27T04:11:27.513Z,21.43
2019-02-27T04:14:03.247Z,22.03
2019-02-27T04:16:29.301Z,21.87
2019-02-27T04:18:59.965Z,21.33
2019-02-27T04:21:26.259Z,21.87
2019-02-27T04:23:54.644Z,21.50
2019-02-27T04:26:23.020Z,20.87
2019-02-27T04:28:51.405Z,21.70
2019-02-27T04:31:19.800Z,20.80
2019-02-27T04:33:48.178Z,21.47
2019-02-27T04:36:16.555Z,22.17
2019-02-27T04:38:44.940Z,22.13
2019-02-27T04:41:17.881Z,20.47
2019-02-27T04:43:43.766Z,22.50
2019-02-27T04:46:12.136Z,21.80
2019-02-27T04:48:40.534Z,22.47
2019-02-27T04:51:08.933Z,21.47
2019-02-27T04:53:37.336Z,20.10
2019-02-27T04:56:05.717Z,20.73
2019-02-27T04:58:34.097Z,20.77
2019-02-27T05:01:02.481Z,21.37
2019-02-27T05:03:30.877Z,22.43
2019-02-27T05:05:59.289Z,20.20
2019-02-27T05:08:27.819Z,20.20
2019-02-27T05:10:56.250Z,20.50
2019-02-27T05:13:24.618Z,19.77
2019-02-27T05:15:53.303Z,20.73
2019-02-27T05:18:21.679Z,21.67
2019-02-27T05:20:50.068Z,18.87
2019-02-27T05:23:18.450Z,20.70
2019-02-27T05:25:46.868Z,20.17
2019-02-27T05:28:15.256Z,20.33
2019-02-27T05:30:45.224Z,21.87
2019-02-27T05:33:13.982Z,20.93
2019-02-27T05:35:42.377Z,22.03
2019-02-27T05:38:10.769Z,21.50
2019-02-27T05:40:39.169Z,19.17
2019-02-27T05:43:07.561Z,21.27
2019-02-27T05:45:35.963Z,21.53
2019-02-27T05:48:04.471Z,19.63
2019-02-27T05:50:35.255Z,22.20
2019-02-27T05:53:02.994Z,19.80
2019-02-27T05:55:31.382Z,21.40
2019-02-27T05:57:59.769Z,23.10
2019-02-27T06:00:28.154Z,22.10
2019-02-27T06:02:56.985Z,21.03
2019-02-27T06:05:25.356Z,21.53
2019-02-27T06:07:53.733Z,19.20
2019-02-27T06:10:23.581Z,20.73
2019-02-27T06:12:52.097Z,18.97
2019-02-27T06:15:20.483Z,21.10
2019-02-27T06:17:49.719Z,21.40
2019-02-27T06:20:18.264Z,21.80
2019-02-27T06:22:46.647Z,20.77
2019-02-27T06:25:23.179Z,21.93
2019-02-27T06:27:48.753Z,22.63
2019-02-27T06:30:18.981Z,19.67
2019-02-27T06:32:47.384Z,22.50
2019-02-27T06:35:16.051Z,20.00
2019-02-27T06:37:44.429Z,20.73
2019-02-27T06:40:18.830Z,23.10
2019-02-27T06:42:47.373Z,19.33
2019-02-27T06:45:18.764Z,20.83
2019-02-27T06:47:47.144Z,18.73
2019-02-27T06:50:18.291Z,19.70
2019-02-27T06:52:46.669Z,19.90
2019-02-27T06:55:54.976Z,19.83
2019-02-27T06:58:42.598Z,17.50
2019-02-27T07:01:13.111Z,19.07
2019-02-27T07:11:38.388Z,18.20
2019-02-27T07:14:06.778Z,18.77
2019-02-27T07:16:56.993Z,19.37
2019-02-27T07:19:24.611Z,19.13
2019-02-27T07:21:52.999Z,20.60
2019-02-27T07:24:21.381Z,20.43
2019-02-27T07:26:50.698Z,20.57
2019-02-27T07:29:21.921Z,19.20
2019-02-27T07:32:09.110Z,21.00
2019-02-27T07:34:56.752Z,21.10
2019-02-27T07:37:25.143Z,21.53
2019-02-27T07:40:12.777Z,20.70
2019-02-27T07:43:00.416Z,21.53
2019-02-27T07:45:28.803Z,22.47
2019-02-27T07:51:10.931Z,22.67
2019-02-27T07:53:58.429Z,23.20
2019-02-27T07:56:26.819Z,21.93
2019-02-27T07:59:14.324Z,22.87
2019-02-27T08:01:43.942Z,23.00
2019-02-27T08:04:12.825Z,22.70
2019-02-27T08:06:41.566Z,24.50
2019-02-27T08:12:00.470Z,28.00
2019-02-27T08:14:28.885Z,25.60
2019-02-27T08:17:17.865Z,28.47
2019-02-27T08:19:46.542Z,27.70
2019-02-27T08:22:54.880Z,26.70
2019-02-27T08:25:23.285Z,24.23
2019-02-27T08:28:11.038Z,24.50
2019-02-27T08:30:39.448Z,24.10
2019-02-27T08:33:08.410Z,24.13
2019-02-27T08:35:57.126Z,24.10
2019-02-27T08:40:59.524Z,22.90
2019-02-27T08:43:47.188Z,24.13
2019-02-27T08:46:15.592Z,22.23
2019-02-27T08:49:03.257Z,23.40
2019-02-27T08:51:31.671Z,24.70
2019-02-27T08:54:00.078Z,23.90
2019-02-27T08:56:30.072Z,22.93
2019-02-27T08:58:58.616Z,23.30
2019-02-27T09:04:33.594Z,22.07
2019-02-27T09:07:02.819Z,19.90
2019-02-27T09:14:55.871Z,21.60
2019-02-27T09:17:26.899Z,20.50
2019-02-27T09:19:53.849Z,19.80
2019-02-27T09:22:41.594Z,19.40
2019-02-27T09:25:57.047Z,21.57
2019-02-27T09:28:20.041Z,19.50
2019-02-27T09:33:38.554Z,19.83
2019-02-27T09:36:00.825Z,19.50
2019-02-27T09:38:48.353Z,21.30
2019-02-27T09:41:16.761Z,18.80
2019-02-27T09:44:04.294Z,18.03
2019-02-27T09:46:32.703Z,17.63
2019-02-27T09:49:20.234Z,18.40
2019-02-27T09:51:48.643Z,17.07
2019-02-27T09:54:36.306Z,17.50
2019-02-27T09:57:04.718Z,16.57
2019-02-27T09:59:53.663Z,16.00
2019-02-27T10:02:22.506Z,15.87
2019-02-27T10:04:50.913Z,17.10
2019-02-27T10:07:38.574Z,16.67
2019-02-27T10:10:46.882Z,16.13
2019-02-27T10:16:08.111Z,15.90
2019-02-27T10:18:55.892Z,16.53
2019-02-27T10:21:24.329Z,14.77
2019-02-27T10:23:53.286Z,17.20
2019-02-27T10:26:22.873Z,15.80
2019-02-27T10:28:51.544Z,16.50
2019-02-27T10:31:39.065Z,15.60
2019-02-27T10:34:07.479Z,15.97
2019-02-27T10:36:55.180Z,16.03
2019-02-27T10:39:23.628Z,14.27
2019-02-27T10:41:52.034Z,15.70
2019-02-27T10:44:39.787Z,14.93
2019-02-27T10:47:27.442Z,16.10
2019-02-27T10:50:15.106Z,15.03
2019-02-27T10:53:02.838Z,14.97
2019-02-27T10:55:50.355Z,15.90
2019-02-27T10:58:18.775Z,14.80
2019-02-27T11:03:55.529Z,15.23
2019-02-27T11:06:45.136Z,13.20
2019-02-27T11:09:32.734Z,13.00
2019-02-27T11:12:20.254Z,12.57
2019-02-27T11:15:08.243Z,11.03
2019-02-27T11:17:55.916Z,10.87
2019-02-27T11:20:24.743Z,13.70
2019-02-27T11:22:54.483Z,12.10
2019-02-27T11:25:42.238Z,11.57
2019-02-27T11:28:29.890Z,12.50
2019-02-27T11:31:17.551Z,13.73
2019-02-27T11:33:45.957Z,11.87
2019-02-27T11:36:34.939Z,12.53
2019-02-27T11:39:23.028Z,14.00
2019-02-27T11:41:51.433Z,13.80
2019-02-27T11:44:19.850Z,12.93
2019-02-27T11:46:58.420Z,13.17
2019-02-27T11:49:18.394Z,13.07
2019-02-27T11:51:46.803Z,14.47
2019-02-27T11:54:34.461Z,12.20
2019-02-27T11:57:02.865Z,13.27
2019-02-27T11:59:50.395Z,12.90
2019-02-27T12:05:46.159Z,10.70
2019-02-27T12:08:14.565Z,12.50
2019-02-27T12:13:35.975Z,12.50
2019-02-27T12:16:44.299Z,12.17
2019-02-27T12:19:12.708Z,10.53
2019-02-27T12:21:41.129Z,10.63
2019-02-27T12:24:28.645Z,10.77
2019-02-27T12:27:25.708Z,11.80
2019-02-27T12:29:46.434Z,12.10
2019-02-27T12:32:14.851Z,11.33
2019-02-27T12:35:03.190Z,9.17
2019-02-27T12:37:50.973Z,10.00
2019-02-27T12:40:59.277Z,11.87
2019-02-27T12:43:27.682Z,10.70
2019-02-27T12:46:15.435Z,12.43
2019-02-27T12:48:46.147Z,11.30
2019-02-27T12:51:13.984Z,12.10
2019-02-27T12:53:42.527Z,11.03
2019-02-27T12:58:46.482Z,11.30
2019-02-27T13:01:16.360Z,11.05
2019-02-27T13:03:45.018Z,9.97
2019-02-27T13:06:13.438Z,10.10
2019-02-27T13:08:41.844Z,9.83
2019-02-27T13:11:50.159Z,9.70
2019-02-27T13:14:18.561Z,9.43
2019-02-27T13:17:06.225Z,11.50
2019-02-27T13:19:34.626Z,9.70
2019-02-27T13:22:22.286Z,11.40
2019-02-27T13:25:09.939Z,10.27
2019-02-27T13:27:40.391Z,10.87
2019-02-27T13:30:28.211Z,9.80
2019-02-27T13:33:00.614Z,10.27
2019-02-27T13:35:28.443Z,9.87
2019-02-27T13:41:10.573Z,9.33
2019-02-27T13:43:39.978Z,9.00
2019-02-27T13:46:27.498Z,9.87
2019-02-27T13:48:55.909Z,9.63
2019-02-27T13:51:24.308Z,8.63
2019-02-27T13:53:52.727Z,8.40
2019-02-27T13:56:21.132Z,9.23
2019-02-27T13:59:10.903Z,8.10
2019-02-27T14:01:39.156Z,8.87
2019-02-27T14:04:26.707Z,7.63
2019-02-27T14:07:14.358Z,8.30
2019-02-27T14:09:42.755Z,9.13
2019-02-27T14:12:51.083Z,8.80
2019-02-27T14:16:00.869Z,9.20
2019-02-27T14:18:29.573Z,9.80
2019-02-27T14:21:17.117Z,9.40
2019-02-27T14:23:46.827Z,9.80
2019-02-27T14:26:15.651Z,8.90
2019-02-27T14:28:44.061Z,9.63
2019-02-27T14:33:59.917Z,9.63
2019-02-27T14:36:28.325Z,10.70
2019-02-27T14:38:56.837Z,10.80
2019-02-27T14:41:25.230Z,10.57
2019-02-27T14:44:12.891Z,10.03
2019-02-27T14:47:00.411Z,10.97
2019-02-27T14:49:28.828Z,11.13
2019-02-27T14:54:44.688Z,10.77
2019-02-27T14:57:16.038Z,11.40
2019-02-27T15:02:22.054Z,12.47
2019-02-27T15:04:47.765Z,12.00
2019-02-27T15:07:35.285Z,12.87
2019-02-27T15:10:43.622Z,13.40
2019-02-27T15:13:31.296Z,15.07
2019-02-27T15:15:59.702Z,14.70
2019-02-27T15:18:28.120Z,15.23
2019-02-27T15:20:56.527Z,15.93
2019-02-27T15:23:44.193Z,15.93
2019-02-27T15:26:13.906Z,15.40
2019-02-27T15:28:42.734Z,16.27
2019-02-27T15:31:11.147Z,16.40
2019-02-27T15:33:58.807Z,16.20
2019-02-27T15:36:46.331Z,16.07
2019-02-27T15:39:20.272Z,17.50
2019-02-27T15:42:08.558Z,15.67
2019-02-27T15:44:34.523Z,16.60
2019-02-27T15:50:56.562Z,16.60
2019-02-27T15:53:41.473Z,15.00
2019-02-27T15:59:44.746Z,17.50
2019-02-27T16:02:13.166Z,16.00
2019-02-27T16:05:00.821Z,16.50
2019-02-27T16:07:29.233Z,17.17
2019-02-27T16:09:57.658Z,17.20
2019-02-27T16:12:45.308Z,16.50
2019-02-27T16:15:53.634Z,16.93
2019-02-27T16:21:09.495Z,16.27
2019-02-27T16:23:38.132Z,17.27
2019-02-27T16:26:08.044Z,16.40
2019-02-27T16:31:23.906Z,17.67
2019-02-27T16:34:11.793Z,18.13
2019-02-27T16:36:40.211Z,18.00
2019-02-27T16:42:22.096Z,16.93
2019-02-27T16:44:50.507Z,18.67
2019-02-27T16:47:19.659Z,17.10
2019-02-27T16:49:50.467Z,17.67
2019-02-27T16:52:41.735Z,17.60
2019-02-27T16:55:28.141Z,17.73
2019-02-27T16:58:36.449Z,17.17
2019-02-27T17:01:04.868Z,16.37
2019-02-27T17:03:33.268Z,16.87
2019-02-27T17:06:20.933Z,19.20
2019-02-27T17:09:10.135Z,17.97
2019-02-27T17:11:38.736Z,18.67
2019-02-27T17:14:26.258Z,18.37
2019-02-27T17:16:54.677Z,17.60
2019-02-27T17:19:42.206Z,17.60
2019-02-27T17:22:10.997Z,17.40
2019-02-27T17:24:40.741Z,16.90
2019-02-27T17:27:28.269Z,18.33
2019-02-27T17:30:16.041Z,17.47
2019-02-27T17:33:24.354Z,17.50
2019-02-27T17:35:53.212Z,19.40
2019-02-27T17:38:22.895Z,19.93
2019-02-27T17:41:10.560Z,16.77
2019-02-27T17:43:38.967Z,17.63
2019-02-27T17:46:07.399Z,16.77
2019-02-27T17:48:35.807Z,17.60
2019-02-27T17:51:06.539Z,17.40
2019-02-27T17:53:34.347Z,18.20
2019-02-27T17:56:02.763Z,18.90
2019-02-27T17:58:33.597Z,20.53
2019-02-27T18:03:41.808Z,21.70
2019-02-27T18:06:31.167Z,20.47
2019-02-27T18:12:05.956Z,19.10
2019-02-27T18:14:53.483Z,17.10
2019-02-27T18:20:14.849Z,17.97
2019-02-27T18:22:45.930Z,17.23
2019-02-27T18:25:32.721Z,15.40
2019-02-27T18:28:01.137Z,16.73
2019-02-27T18:30:52.840Z,16.83
2019-02-27T18:33:18.927Z,17.00
2019-02-27T18:35:47.334Z,19.57
2019-02-27T18:38:15.755Z,18.80
2019-02-27T18:40:44.470Z,19.00
2019-02-27T18:43:12.888Z,19.43
2019-02-27T18:45:41.294Z,18.33
2019-02-27T18:48:10.113Z,21.00
2019-02-27T18:50:38.993Z,19.03
2019-02-27T18:53:26.532Z,17.53
2019-02-27T18:55:54.935Z,18.63
2019-02-27T18:58:42.463Z,17.40
2019-02-27T19:01:50.791Z,19.00
2019-02-27T19:04:19.202Z,15.90
2019-02-27T19:09:40.787Z,20.47
2019-02-27T19:12:09.203Z,21.37
2019-02-27T19:17:44.426Z,18.53
2019-02-27T19:20:52.739Z,16.57
2019-02-27T19:23:21.157Z,14.17
2019-02-27T19:25:49.559Z,15.27
2019-02-27T19:28:37.217Z,14.40
2019-02-27T19:33:53.084Z,13.43
2019-02-27T19:36:21.488Z,12.20
2019-02-27T19:38:49.913Z,14.47
2019-02-27T19:41:58.239Z,12.30
2019-02-27T19:44:45.894Z,11.70
2019-02-27T19:47:33.559Z,14.13
2019-02-27T19:53:08.665Z,13.57
2019-02-27T19:56:00.601Z,12.40
2019-02-27T19:58:26.318Z,12.10
2019-02-27T20:00:54.727Z,12.10
2019-02-27T20:03:42.325Z,12.97
2019-02-27T20:09:20.082Z,12.70
2019-02-27T20:12:06.739Z,12.40
2019-02-27T20:17:49.423Z,11.77
2019-02-27T20:20:40.949Z,12.30
2019-02-27T20:23:07.582Z,11.70
2019-02-27T20:25:56.137Z,11.97
2019-02-27T20:28:44.352Z,11.00
2019-02-27T20:31:17.959Z,12.43
2019-02-27T20:33:42.907Z,11.03
2019-02-27T20:36:33.012Z,11.33
2019-02-27T20:39:00.688Z,11.20
2019-02-27T20:41:48.337Z,10.67
2019-02-27T20:44:37.297Z,11.20
2019-02-27T20:47:25.114Z,11.83
2019-02-27T20:50:12.762Z,11.57
2019-02-27T20:53:00.422Z,10.87
2019-02-27T20:55:30.918Z,11.20
2019-02-27T20:58:18.476Z,10.03
2019-02-27T21:00:46.884Z,11.43
2019-02-27T21:03:15.302Z,10.60
2019-02-27T21:08:33.291Z,10.57
2019-02-27T21:11:02.926Z,11.40
2019-02-27T21:14:11.263Z,10.93
2019-02-27T21:19:28.759Z,11.53
2019-02-27T21:22:16.531Z,12.07
2019-02-27T21:25:04.189Z,10.10
2019-02-27T21:30:51.816Z,10.90
2019-02-27T21:33:16.889Z,11.20
2019-02-27T21:35:45.294Z,10.10
2019-02-27T21:38:16.703Z,10.33
2019-02-27T21:40:43.833Z,9.33
2019-02-27T21:43:31.490Z,9.80
2019-02-27T21:45:59.898Z,10.23
2019-02-27T21:48:47.559Z,11.30
2019-02-27T21:54:22.753Z,10.40
2019-02-27T21:57:10.411Z,10.23
2019-02-27T21:59:58.069Z,9.93
2019-02-27T22:05:18.413Z,10.03
2019-02-27T22:10:53.687Z,9.87
2019-02-27T22:13:29.460Z,9.87
2019-02-27T22:15:55.775Z,10.57
2019-02-27T22:18:22.550Z,11.17
2019-02-27T22:20:50.962Z,10.83
2019-02-27T22:23:38.613Z,9.73
2019-02-27T22:26:07.034Z,10.07
2019-02-27T22:31:22.902Z,10.70
2019-02-27T22:34:10.428Z,10.63
2019-02-27T22:36:58.343Z,10.67
2019-02-27T22:39:26.779Z,10.97
2019-02-27T22:42:15.327Z,10.83
2019-02-27T22:47:21.673Z,10.50
2019-02-27T22:49:49.334Z,10.70
2019-02-27T22:52:19.305Z,11.10
2019-02-27T22:54:47.877Z,10.83
2019-02-27T22:57:16.281Z,11.00
2019-02-27T23:05:32.214Z,11.07
2019-02-27T23:08:00.614Z,11.50
2019-02-27T23:10:48.274Z,12.70
2019-02-27T23:13:56.606Z,11.17
2019-02-27T23:18:59.445Z,11.53
2019-02-27T23:21:47.111Z,10.87
2019-02-27T23:27:03.392Z,11.90
2019-02-27T23:29:52.330Z,11.93
2019-02-27T23:32:20.750Z,12.63
2019-02-27T23:34:49.152Z,13.30
2019-02-27T23:37:17.589Z,12.77
2019-02-27T23:39:46.005Z,11.80
2019-02-27T23:45:12.721Z,13.40
2019-02-27T23:47:41.283Z,12.53
2019-02-27T23:50:30.481Z,12.27
2019-02-27T23:52:58.886Z,12.53
2019-02-27T23:56:07.207Z,13.47
